Terminal Aerodrome Forecast
Issued by NWS Sterling, VA

Current Version | Previous Version | Graphics & Text | Print | Product List | Glossary On
Versions: 1 2 3 4 5 6 7 8 9 10 11 12 13 14 15 16 17 18
000
FTUS41 KLWX 280822 AAA
TAFMRB
TAF AMD
KMRB 280822Z 2808/2906 VRB03KT P6SM SCT050 BKN120
      TEMPO 2810/2812 4SM BR
     FM281800 VRB05KT P6SM VCTS SCT050CB BKN090
     FM282300 VRB03KT P6SM VCSH SCT070=

USA.gov is the U.S. government's official web portal to all federal, state and local government web resources and services.